Time;durP1;ratioP1;P1;durP2;ratioP2;P2;SDS_P1;SDS_P2;PMS_P1;PMS_P2;Temp;Humidity;BMP_temperature;BMP_pressure;BME280_temperature;BME280_humidity;BME280_pressure;Samples;Min_cycle;Max_cycle;Signal;HPM_P1;HPM_P2
2022/07/15 00:00:00;;;;;;;4.40;2.58;;;537.90;2406.40;;;;;;5015207;28;20033;-82
2022/07/15 00:02:26;;;;;;;5.72;2.47;;;538.00;2406.40;;;;;;5015529;28;20038;-81
2022/07/15 00:04:52;;;;;;;4.63;2.50;;;537.70;2406.40;;;;;;5015980;28;20030;-81
2022/07/15 00:07:20;;;;;;;4.05;2.53;;;537.70;2406.40;;;;;;5014594;28;20030;-82
2022/07/15 00:12:30;;;;;;;4.30;2.40;;;512.80;2380.80;;;;;;5018271;28;20037;-81
2022/07/15 00:14:56;;;;;;;7.07;2.70;;;512.80;2380.80;;;;;;5016388;28;20470;-82
2022/07/15 00:17:22;;;;;;;5.53;3.20;;;512.80;2380.80;;;;;;5014978;28;20493;-81
2022/07/15 00:19:47;;;;;;;4.05;2.30;;;512.90;2380.80;;;;;;5014410;28;20026;-81
2022/07/15 00:22:13;;;;;;;5.38;2.40;;;512.80;2380.80;;;;;;5014728;28;20108;-82
2022/07/15 00:24:39;;;;;;;4.82;2.17;;;512.90;2380.80;;;;;;5014602;28;20026;-82
2022/07/15 00:27:05;;;;;;;4.85;2.30;;;512.90;2380.80;;;;;;5014189;28;20029;-82
2022/07/15 00:29:31;;;;;;;6.70;2.28;;;512.90;2380.80;;;;;;5019256;28;20045;-82
2022/07/15 00:31:57;;;;;;;4.50;2.50;;;537.60;2406.40;;;;;;5017741;28;20458;-82
2022/07/15 00:34:23;;;;;;;4.85;2.83;;;537.70;2406.40;;;;;;5017297;28;20036;-82
2022/07/15 00:36:48;;;;;;;6.32;2.40;;;512.90;2380.80;;;;;;5017861;28;20021;-82
2022/07/15 00:39:15;;;;;;;5.68;3.10;;;537.60;2406.40;;;;;;5017311;28;20117;-82
2022/07/15 00:41:42;;;;;;;5.97;2.70;;;537.70;2406.40;;;;;;5017758;28;20053;-82
2022/07/15 00:44:08;;;;;;;5.97;3.00;;;512.90;2380.80;;;;;;5017813;28;20033;-82
2022/07/15 00:46:35;;;;;;;7.18;2.42;;;512.80;2380.80;;;;;;5017591;28;20057;-82
2022/07/15 00:49:04;;;;;;;8.90;2.75;;;512.70;2380.80;;;;;;5016899;28;20025;-82
2022/07/15 00:51:49;;;;;;;6.40;2.55;;;512.70;2380.80;;;;;;5035112;28;20025;-82
2022/07/15 00:54:18;;;;;;;5.85;3.08;;;512.50;2380.80;;;;;;5017365;28;20112;-82
2022/07/15 00:56:56;;;;;;;5.60;2.70;;;512.40;2380.80;;;;;;5020043;28;20112;-82
2022/07/15 00:59:24;;;;;;;4.78;2.90;;;487.30;2380.80;;;;;;5036009;28;20067;-82
2022/07/15 01:01:52;;;;;;;5.75;3.10;;;512.30;2380.80;;;;;;5017342;28;20035;-82
2022/07/15 01:04:20;;;;;;;4.70;2.80;;;512.30;2380.80;;;;;;5017057;28;20025;-82
2022/07/15 01:06:46;;;;;;;5.00;2.10;;;512.10;2380.80;;;;;;5016879;28;20461;-82
2022/07/15 01:09:12;;;;;;;4.90;2.70;;;512.10;2380.80;;;;;;5017081;28;20095;-83
2022/07/15 01:11:38;;;;;;;5.30;2.80;;;512.20;2380.80;;;;;;5017085;28;20025;-82
2022/07/15 01:14:04;;;;;;;4.18;2.53;;;487.30;2380.80;;;;;;5017044;28;20032;-82
2022/07/15 01:16:30;;;;;;;6.82;2.60;;;486.80;2380.80;;;;;;5016852;28;20032;-82
2022/07/15 01:18:57;;;;;;;6.05;2.88;;;487.30;2380.80;;;;;;5016489;28;20026;-82
2022/07/15 01:21:23;;;;;;;6.97;2.72;;;512.00;2380.80;;;;;;5017121;28;20032;-83
2022/07/15 01:23:49;;;;;;;6.88;2.75;;;487.30;2380.80;;;;;;5022938;28;20067;-83
2022/07/15 01:26:16;;;;;;;6.20;2.83;;;487.20;2380.80;;;;;;5026888;28;20040;-83
2022/07/15 01:28:42;;;;;;;6.93;3.00;;;512.00;2380.80;;;;;;5032716;28;20038;-82
2022/07/15 01:31:09;;;;;;;6.85;2.70;;;487.30;2380.80;;;;;;5041416;28;20052;-82
2022/07/15 01:33:35;;;;;;;5.07;2.67;;;512.00;2380.80;;;;;;5041412;28;20009;-82
2022/07/15 01:36:02;;;;;;;7.13;2.58;;;487.20;2380.80;;;;;;5040451;28;20024;-82
2022/07/15 01:38:28;;;;;;;6.32;2.72;;;486.90;2380.80;;;;;;5019300;28;20028;-82
2022/07/15 01:40:55;;;;;;;6.00;2.53;;;487.20;2380.80;;;;;;5021800;28;20111;-82
2022/07/15 01:43:21;;;;;;;6.95;2.80;;;487.00;2380.80;;;;;;5019295;28;20026;-83
2022/07/15 01:45:47;;;;;;;6.72;2.60;;;486.80;2380.80;;;;;;5035893;28;20025;-82
2022/07/15 01:50:59;;;;;;;4.03;2.53;;;487.00;2380.80;;;;;;5037502;28;20120;-82
2022/07/15 01:53:28;;;;;;;7.97;3.03;;;487.10;2380.80;;;;;;5022112;28;20029;-83
2022/07/15 01:55:54;;;;;;;4.68;2.92;;;487.00;2380.80;;;;;;5018256;28;20028;-82
2022/07/15 01:58:21;;;;;;;8.13;2.78;;;486.90;2380.80;;;;;;5016529;28;20029;-83
2022/07/15 02:00:47;;;;;;;4.88;3.03;;;486.80;2380.80;;;;;;5034014;28;20029;-83
2022/07/15 02:03:13;;;;;;;4.93;2.70;;;486.90;2380.80;;;;;;5016370;28;20026;-83
2022/07/15 02:05:39;;;;;;;4.85;2.67;;;486.90;2380.80;;;;;;5016119;28;20030;-82
2022/07/15 02:08:05;;;;;;;5.10;3.10;;;486.80;2380.80;;;;;;5016350;28;20025;-82
2022/07/15 02:10:40;;;;;;;8.95;2.55;;;486.70;2380.80;;;;;;5016302;28;20029;-81
2022/07/15 02:13:10;;;;;;;6.53;3.20;;;486.80;2380.80;;;;;;5016135;28;20087;-82
2022/07/15 02:15:37;;;;;;;5.13;2.50;;;486.60;2380.80;;;;;;5016894;28;20430;-83
2022/07/15 02:18:03;;;;;;;5.45;2.53;;;486.60;2380.80;;;;;;5016114;28;20029;-81
2022/07/15 02:20:30;;;;;;;5.50;3.00;;;461.50;2380.80;;;;;;5016083;28;20029;-82
2022/07/15 02:23:01;;;;;;;4.53;2.78;;;486.80;2380.80;;;;;;5016033;28;20035;-82
2022/07/15 02:25:28;;;;;;;5.32;2.72;;;486.70;2380.80;;;;;;5016359;28;20083;-82
2022/07/15 02:27:59;;;;;;;4.43;2.50;;;486.80;2380.80;;;;;;5015633;28;20026;-82
2022/07/15 02:30:31;;;;;;;4.68;2.47;;;486.80;2380.80;;;;;;5015513;28;20045;-82
2022/07/15 02:32:56;;;;;;;4.53;2.78;;;486.70;2380.80;;;;;;5019694;28;20095;-82
2022/07/15 02:35:23;;;;;;;5.78;2.85;;;486.50;2380.80;;;;;;5019960;28;20454;-82
2022/07/15 02:37:49;;;;;;;5.28;2.78;;;486.70;2380.80;;;;;;5019826;28;20108;-82
2022/07/15 02:40:14;;;;;;;4.05;2.80;;;486.50;2380.80;;;;;;5019543;28;20545;-82
2022/07/15 02:42:51;;;;;;;4.47;2.80;;;486.40;2380.80;;;;;;5019638;28;20060;-82
2022/07/15 02:45:23;;;;;;;4.97;2.72;;;461.60;2380.80;;;;;;5019814;28;20035;-82
2022/07/15 02:47:49;;;;;;;5.88;2.80;;;486.40;2380.80;;;;;;5019372;28;20030;-82
2022/07/15 02:50:16;;;;;;;6.55;3.20;;;461.60;2380.80;;;;;;5019859;28;20455;-82
2022/07/15 02:52:42;;;;;;;9.00;3.10;;;486.40;2380.80;;;;;;5019549;28;20056;-82
2022/07/15 02:55:10;;;;;;;5.63;2.75;;;486.40;2380.80;;;;;;5019756;28;20132;-82
2022/07/15 02:57:36;;;;;;;5.28;2.80;;;486.50;2380.80;;;;;;5019547;28;20079;-84
2022/07/15 03:00:05;;;;;;;5.85;3.17;;;486.40;2380.80;;;;;;5019311;28;20381;-82
2022/07/15 03:02:31;;;;;;;4.65;2.72;;;486.40;2380.80;;;;;;5019307;28;20040;-83
2022/07/15 03:04:56;;;;;;;6.00;3.08;;;461.60;2380.80;;;;;;5019022;28;20022;-82
2022/07/15 03:07:23;;;;;;;6.85;2.78;;;461.60;2380.80;;;;;;5019135;28;20030;-83
2022/07/15 03:09:49;;;;;;;4.90;3.03;;;461.70;2380.80;;;;;;5018829;28;20116;-83
2022/07/15 03:12:15;;;;;;;9.15;2.78;;;461.70;2380.80;;;;;;5019222;28;20053;-83
2022/07/15 03:14:41;;;;;;;4.38;2.85;;;461.70;2380.80;;;;;;5018792;28;20026;-83
2022/07/15 03:17:08;;;;;;;7.57;3.00;;;461.70;2380.80;;;;;;5019384;28;20025;-81
2022/07/15 03:19:34;;;;;;;6.55;2.80;;;486.40;2380.80;;;;;;5019229;28;20456;-83
2022/07/15 03:22:00;;;;;;;6.10;2.78;;;486.40;2380.80;;;;;;5018895;28;20120;-83
2022/07/15 03:24:26;;;;;;;4.53;2.67;;;486.40;2380.80;;;;;;5019006;28;20049;-83
2022/07/15 03:26:53;;;;;;;5.53;3.28;;;486.40;2380.80;;;;;;5018824;28;20107;-83
2022/07/15 03:29:19;;;;;;;6.15;3.15;;;461.60;2380.80;;;;;;5018642;28;20075;-84
2022/07/15 03:31:45;;;;;;;5.57;2.92;;;461.60;2380.80;;;;;;5018978;28;20087;-83
2022/07/15 03:34:11;;;;;;;5.93;3.35;;;461.50;2380.80;;;;;;5018403;28;20072;-83
2022/07/15 03:36:38;;;;;;;5.53;3.03;;;461.10;2380.80;;;;;;5018366;28;20025;-83
2022/07/15 03:39:05;;;;;;;6.20;3.28;;;461.00;2380.80;;;;;;5019148;28;20500;-84
2022/07/15 03:41:31;;;;;;;4.15;2.80;;;461.20;2380.80;;;;;;5020142;28;20049;-84
2022/07/15 03:43:57;;;;;;;5.03;2.80;;;461.30;2380.80;;;;;;5018948;28;20390;-84
2022/07/15 03:46:23;;;;;;;8.23;3.28;;;461.10;2380.80;;;;;;5021185;28;20029;-83
2022/07/15 03:48:49;;;;;;;6.50;4.00;;;461.20;2380.80;;;;;;5018582;28;20462;-83
2022/07/15 03:51:15;;;;;;;5.78;3.40;;;461.20;2380.80;;;;;;5018371;28;20034;-83
2022/07/15 03:53:41;;;;;;;4.25;3.15;;;461.00;2380.80;;;;;;5018435;28;20068;-83
2022/07/15 03:56:07;;;;;;;6.60;3.20;;;461.40;2380.80;;;;;;5018111;28;20022;-83
2022/07/15 03:58:33;;;;;;;7.13;3.20;;;461.30;2380.80;;;;;;5018223;28;20029;-83
2022/07/15 04:00:59;;;;;;;13.88;4.22;;;461.10;2380.80;;;;;;5018269;28;20133;-83
2022/07/15 04:03:25;;;;;;;14.30;3.72;;;461.30;2380.80;;;;;;5018459;28;20064;-83
2022/07/15 04:05:51;;;;;;;8.93;3.22;;;461.20;2380.80;;;;;;5018824;28;20116;-83
2022/07/15 04:08:17;;;;;;;8.88;3.67;;;461.40;2380.80;;;;;;5018803;28;20022;-83
2022/07/15 04:10:42;;;;;;;6.30;3.50;;;461.50;2380.80;;;;;;5018294;28;20029;-85
2022/07/15 04:13:08;;;;;;;6.45;3.58;;;461.60;2380.80;;;;;;5019195;28;20029;-84
2022/07/15 04:15:34;;;;;;;10.93;3.28;;;461.70;2380.80;;;;;;5019013;28;20025;-84
2022/07/15 04:18:01;;;;;;;7.22;3.28;;;486.40;2380.80;;;;;;5017972;28;20033;-84
2022/07/15 04:20:27;;;;;;;6.75;2.92;;;461.50;2380.80;;;;;;5035886;28;20075;-84
2022/07/15 04:22:53;;;;;;;6.60;2.90;;;461.50;2380.80;;;;;;5018226;28;20029;-85
2022/07/15 04:25:21;;;;;;;7.57;3.50;;;461.50;2380.80;;;;;;5018222;28;20021;-84
2022/07/15 04:27:48;;;;;;;10.40;3.58;;;461.60;2380.80;;;;;;5017962;28;20051;-84
2022/07/15 04:30:14;;;;;;;9.35;3.05;;;461.50;2380.80;;;;;;5017652;28;20536;-84
2022/07/15 04:32:41;;;;;;;9.98;3.35;;;461.50;2380.80;;;;;;5017628;28;20389;-83
2022/07/15 04:35:08;;;;;;;7.80;3.40;;;461.50;2380.80;;;;;;5018056;28;20026;-83
2022/07/15 04:37:33;;;;;;;8.98;3.53;;;461.50;2380.80;;;;;;5018716;28;20033;-83
2022/07/15 04:39:59;;;;;;;7.03;3.60;;;461.60;2380.80;;;;;;5024109;28;20033;-84
2022/07/15 04:42:26;;;;;;;9.48;3.65;;;461.50;2380.80;;;;;;5021510;28;20038;-84
2022/07/15 04:44:52;;;;;;;9.65;3.65;;;461.50;2380.80;;;;;;5017437;28;20071;-85
2022/07/15 04:47:18;;;;;;;8.32;3.60;;;461.50;2380.80;;;;;;5017240;28;20472;-84
2022/07/15 04:52:30;;;;;;;13.05;3.58;;;461.60;2380.80;;;;;;5034962;28;20390;-84
2022/07/15 04:54:56;;;;;;;6.43;3.50;;;461.60;2380.80;;;;;;5016476;28;20473;-84
2022/07/15 04:57:22;;;;;;;9.85;3.97;;;461.60;2380.80;;;;;;5017075;28;20032;-84
2022/07/15 04:59:49;;;;;;;11.60;4.25;;;461.70;2380.80;;;;;;5017049;28;20385;-84
2022/07/15 05:02:15;;;;;;;9.77;3.83;;;461.60;2380.80;;;;;;5016989;28;20052;-83
2022/07/15 05:04:40;;;;;;;8.88;3.60;;;461.70;2380.80;;;;;;5016963;28;20029;-83
2022/07/15 05:07:07;;;;;;;7.88;3.38;;;486.40;2380.80;;;;;;5016362;28;20389;-83
2022/07/15 05:09:33;;;;;;;14.48;4.28;;;486.60;2380.80;;;;;;5017035;28;20032;-83
2022/07/15 05:11:59;;;;;;;8.85;4.03;;;486.60;2380.80;;;;;;5016869;28;20029;-83
2022/07/15 05:14:25;;;;;;;7.70;3.47;;;486.60;2380.80;;;;;;5016803;28;20095;-83
2022/07/15 05:16:51;;;;;;;15.55;4.50;;;486.70;2380.80;;;;;;5017035;28;20505;-83
2022/07/15 05:19:17;;;;;;;10.40;3.78;;;486.80;2380.80;;;;;;5016930;28;20124;-83
2022/07/15 05:21:43;;;;;;;10.52;4.15;;;486.90;2380.80;;;;;;5016536;28;20075;-83
2022/07/15 05:24:09;;;;;;;12.88;4.30;;;486.90;2380.80;;;;;;5016731;28;20021;-83
2022/07/15 05:26:35;;;;;;;9.63;4.70;;;486.80;2380.80;;;;;;5016769;28;20025;-83
2022/07/15 05:29:01;;;;;;;12.18;4.40;;;486.70;2380.80;;;;;;5016434;28;20124;-84
2022/07/15 05:31:27;;;;;;;8.80;4.15;;;486.90;2380.80;;;;;;5016502;28;20041;-84
2022/07/15 05:33:54;;;;;;;13.27;4.15;;;486.90;2380.80;;;;;;5016821;28;20032;-83
2022/07/15 05:36:20;;;;;;;12.00;4.78;;;487.10;2380.80;;;;;;5016371;28;20029;-84
2022/07/15 05:38:46;;;;;;;8.00;4.25;;;487.20;2380.80;;;;;;5034291;28;20029;-82
2022/07/15 05:41:13;;;;;;;11.13;3.78;;;487.30;2380.80;;;;;;5015989;28;20048;-81
2022/07/15 05:43:39;;;;;;;8.43;4.00;;;512.00;2380.80;;;;;;5016266;28;20025;-81
2022/07/15 05:46:05;;;;;;;8.60;4.07;;;512.10;2380.80;;;;;;5016711;28;20394;-81
2022/07/15 05:48:31;;;;;;;9.18;3.35;;;512.20;2380.80;;;;;;5016761;28;20021;-82
2022/07/15 05:50:58;;;;;;;8.15;3.47;;;512.40;2380.80;;;;;;5017185;28;20062;-83
2022/07/15 05:53:24;;;;;;;6.82;3.50;;;563.20;2432.00;;;;;;5016697;28;20022;-83
2022/07/15 05:55:52;;;;;;;6.32;2.90;;;537.70;2406.40;;;;;;5016397;28;20096;-84
2022/07/15 05:58:18;;;;;;;9.02;3.38;;;512.70;2380.80;;;;;;5016636;28;20025;-83
2022/07/15 06:00:49;;;;;;;10.25;3.35;;;512.60;2380.80;;;;;;5016491;28;20125;-80
2022/07/15 06:03:15;;;;;;;9.93;3.78;;;537.60;2406.40;;;;;;5018305;28;20108;-81
2022/07/15 06:05:47;;;;;;;9.13;3.67;;;537.90;2406.40;;;;;;5018766;28;20496;-84
2022/07/15 06:08:58;;;;;;;9.18;3.90;;;537.60;2406.40;;;;;;5019318;28;20116;-84
2022/07/15 06:11:37;;;;;;;13.88;5.32;;;538.00;2406.40;;;;;;5025895;28;20109;-81
2022/07/15 06:17:55;;;;;;;9.13;3.83;;;538.30;2406.40;;;;;;5045830;28;20228;-81
2022/07/15 06:21:07;;;;;;;7.63;3.25;;;538.40;2406.40;;;;;;5029842;28;20103;-82
2022/07/15 06:31:32;;;;;;;7.18;3.20;;;563.60;2432.00;;;;;;5302687;23;20054;-83
2022/07/15 06:33:59;;;;;;;4.18;2.60;;;563.70;2432.00;;;;;;4973438;28;20114;-82
2022/07/15 06:36:25;;;;;;;6.68;2.97;;;563.70;2432.00;;;;;;4968588;28;20046;-82
2022/07/15 06:38:54;;;;;;;13.43;8.32;;;563.60;2432.00;;;;;;4966650;28;20030;-81
2022/07/15 06:41:54;;;;;;;10.80;7.55;;;564.00;2432.00;;;;;;4965630;28;20027;-82
2022/07/15 06:51:50;;;;;;;;;;;;;;;;;;;;;
2022/07/15 06:58:46;;;;;;;;;;;;;;;;;;;;;
2022/07/15 07:01:57;;;;;;;9.05;4.10;;;614.40;2432.00;;;;;;4827796;29;20041;-85
2022/07/15 07:04:23;;;;;;;12.68;4.35;;;614.40;2406.40;;;;;;4885146;29;20060;-85
2022/07/15 07:07:00;;;;;;;10.48;6.78;;;614.70;2406.40;;;;;;4901814;29;20511;-85
2022/07/15 07:09:43;;;;;;;8.82;3.40;;;614.70;2406.40;;;;;;4941379;28;20031;-85
2022/07/15 07:12:10;;;;;;;7.38;4.53;;;614.90;2380.80;;;;;;4958322;28;20034;-86
2022/07/15 07:15:21;;;;;;;8.00;3.25;;;615.30;2355.20;;;;;;4957365;28;20022;-87
2022/07/15 07:17:56;;;;;;;9.73;3.63;;;640.00;2355.20;;;;;;4958956;28;20356;-84
2022/07/15 07:20:35;;;;;;;7.40;3.22;;;640.60;2304.00;;;;;;4960641;28;20026;-87
2022/07/15 07:23:02;;;;;;;5.50;2.90;;;640.10;2304.00;;;;;;4960843;28;20023;-86
2022/07/15 07:26:06;;;;;;;6.00;2.97;;;640.00;2278.40;;;;;;4961123;28;20414;-85
2022/07/15 07:28:33;;;;;;;11.77;3.28;;;640.30;2278.40;;;;;;4882841;28;20058;-84
2022/07/15 07:30:59;;;;;;;7.97;2.88;;;614.90;2278.40;;;;;;4960526;28;20081;-84
2022/07/15 07:33:25;;;;;;;4.63;2.25;;;640.60;2252.80;;;;;;4957068;29;20131;-84
2022/07/15 07:35:52;;;;;;;10.07;3.45;;;640.70;2227.20;;;;;;4957394;29;20027;-83
2022/07/15 07:38:19;;;;;;;5.55;2.60;;;640.80;2252.80;;;;;;4957159;29;20031;-85
2022/07/15 07:40:49;;;;;;;6.45;2.88;;;;;;;;;;4956863;29;20032;-85
2022/07/15 07:43:17;;;;;;;10.05;3.08;;;665.90;2227.20;;;;;;4957701;29;20031;-84
2022/07/15 07:45:43;;;;;;;4.72;2.78;;;666.50;2201.60;;;;;;4961004;29;20023;-79
2022/07/15 07:48:09;;;;;;;6.57;2.67;;;666.30;2176.00;;;;;;4965808;29;20094;-80
2022/07/15 07:50:35;;;;;;;4.90;2.55;;;;;;;;;;4957384;29;20427;-82
2022/07/15 07:53:01;;;;;;;8.48;2.90;;;666.50;2150.40;;;;;;4956586;29;20023;-81
2022/07/15 07:55:27;;;;;;;6.18;2.30;;;691.30;2124.80;;;;;;4956592;29;20046;-80
2022/07/15 07:57:54;;;;;;;4.93;2.30;;;691.30;2124.80;;;;;;4956906;29;20125;-82
2022/07/15 08:00:23;;;;;;;10.00;2.70;;;691.30;2124.80;;;;;;4956618;29;20078;-81
2022/07/15 08:02:49;;;;;;;8.68;2.47;;;691.40;2124.80;;;;;;4957687;28;20027;-81
2022/07/15 08:05:15;;;;;;;6.40;2.95;;;691.50;2099.20;;;;;;4956763;29;20031;-81
2022/07/15 08:07:42;;;;;;;5.32;2.40;;;691.70;2073.60;;;;;;4956818;29;20030;-84
2022/07/15 08:10:09;;;;;;;5.82;2.20;;;691.80;2048.00;;;;;;4956582;29;20472;-82
2022/07/15 08:12:38;;;;;;;9.50;2.50;;;691.90;2073.60;;;;;;4956747;29;20034;-83
2022/07/15 08:15:06;;;;;;;5.40;2.90;;;691.90;2048.00;;;;;;4956353;29;20023;-82
2022/07/15 08:17:33;;;;;;;6.05;2.70;;;716.90;2073.60;;;;;;4956388;29;20027;-82
2022/07/15 08:19:59;;;;;;;5.75;3.03;;;717.10;2022.40;;;;;;4956535;29;20059;-82
2022/07/15 08:22:27;;;;;;;5.82;2.25;;;717.20;2022.40;;;;;;4956500;29;20023;-84
2022/07/15 08:24:53;;;;;;;7.05;2.45;;;717.20;2022.40;;;;;;4956444;29;20024;-82
2022/07/15 08:27:37;;;;;;;5.78;2.50;;;717.50;2022.40;;;;;;4956494;29;20023;-84
2022/07/15 08:30:04;;;;;;;7.25;2.78;;;717.60;1996.80;;;;;;4955178;28;20035;-84
2022/07/15 08:32:30;;;;;;;8.50;2.92;;;716.90;1971.20;;;;;;4955796;29;20051;-83
2022/07/15 08:35:09;;;;;;;6.22;2.35;;;742.40;1971.20;;;;;;4956661;29;20038;-87
2022/07/15 08:37:35;;;;;;;6.13;2.33;;;;;;;;;;4955718;29;20553;-84
2022/07/15 08:40:01;;;;;;;5.18;2.28;;;;;;;;;;4955950;29;20042;-86
2022/07/15 08:42:30;;;;;;;8.82;2.22;;;;;;;;;;4956190;29;20398;-81
2022/07/15 08:44:56;;;;;;;5.30;1.95;;;;;;;;;;4956152;29;20050;-85
2022/07/15 08:47:23;;;;;;;7.78;2.40;;;;;;;;;;4956086;29;20030;-85
2022/07/15 08:49:54;;;;;;;6.15;2.30;;;;;;;;;;4956072;29;20174;-88
2022/07/15 08:52:20;;;;;;;6.63;3.13;;;;;;;;;;4956081;29;20144;-87
2022/07/15 08:54:47;;;;;;;9.05;3.28;;;768.10;1868.80;;;;;;4956054;29;20027;-86
2022/07/15 08:57:14;;;;;;;5.25;2.13;;;;;;;;;;4955797;29;20023;-88
2022/07/15 08:59:41;;;;;;;6.85;4.10;;;768.40;1817.60;;;;;;4956431;29;20027;-88
2022/07/15 09:02:07;;;;;;;10.13;5.47;;;768.30;1843.20;;;;;;4956346;29;20028;-88
2022/07/15 09:04:33;;;;;;;8.00;4.78;;;;;;;;;;4956584;29;20027;-88
2022/07/15 09:07:04;;;;;;;7.88;3.58;;;;;;;;;;4955948;29;20034;-86
2022/07/15 09:09:36;;;;;;;5.38;2.55;;;;;;;;;;4955703;29;20032;-85
2022/07/15 09:12:02;;;;;;;;;;;;;;;;;;4956149;29;20059;-88
2022/07/15 09:14:30;;;;;;;7.50;3.30;;;;;;;;;;4955944;29;19980;-85
2022/07/15 09:17:06;;;;;;;5.50;2.42;;;;;;;;;;4955799;29;20023;-89
2022/07/15 09:19:51;;;;;;;5.65;3.50;;;;;;;;;;4955666;29;20027;-86
2022/07/15 09:22:18;;;;;;;6.18;3.05;;;;;;;;;;4955707;29;20078;-89
2022/07/15 09:24:44;;;;;;;8.02;3.95;;;;;;;;;;4955603;29;20027;-85
2022/07/15 09:27:31;;;;;;;5.88;2.90;;;;;;;;;;4955668;29;20035;-84
2022/07/15 09:36:01;;;;;;;11.57;5.15;;;819.50;1664.00;;;;;;4976400;28;20331;-91
2022/07/15 09:39:10;;;;;;;11.55;7.10;;;819.80;1664.00;;;;;;4958851;28;20031;-90
2022/07/15 09:41:43;;;;;;;4.45;2.00;;;819.70;1664.00;;;;;;4975266;28;20046;-87
2022/07/15 09:44:18;;;;;;;6.57;3.08;;;819.70;1612.80;;;;;;4959968;28;20023;-88
2022/07/15 09:50:33;;;;;;;6.60;2.60;;;820.00;1638.40;;;;;;4939540;28;20034;-90
2022/07/15 09:53:00;;;;;;;6.47;2.50;;;844.90;1664.00;;;;;;4958810;28;20482;-87
2022/07/15 09:55:26;;;;;;;7.78;2.22;;;845.00;1612.80;;;;;;4958649;28;20105;-88
2022/07/15 09:57:53;;;;;;;4.88;2.20;;;845.10;1612.80;;;;;;4958750;28;20471;-86
2022/07/15 10:00:19;;;;;;;4.68;1.90;;;844.90;1561.60;;;;;;4958550;28;20457;-86
2022/07/15 10:02:45;;;;;;;4.35;2.20;;;845.00;1587.20;;;;;;4958669;28;20379;-88
2022/07/15 10:05:11;;;;;;;8.00;3.25;;;844.80;1587.20;;;;;;4958316;28;20019;-89
2022/07/15 10:07:39;;;;;;;8.07;3.45;;;845.10;1587.20;;;;;;4959187;28;20027;-87
2022/07/15 10:10:06;;;;;;;4.28;1.90;;;845.30;1561.60;;;;;;4958442;28;20031;-89
2022/07/15 10:12:59;;;;;;;6.95;1.80;;;845.20;1561.60;;;;;;4958476;28;20570;-86
2022/07/15 10:15:51;;;;;;;11.43;3.42;;;844.90;1587.20;;;;;;4944124;28;20042;-83
2022/07/15 10:18:55;;;;;;;6.15;2.83;;;845.30;1587.20;;;;;;4923541;28;20066;-83
2022/07/15 10:21:41;;;;;;;4.93;2.92;;;845.30;1510.40;;;;;;4880529;29;20071;-87
2022/07/15 10:24:35;;;;;;;6.03;1.70;;;845.40;1561.60;;;;;;4940102;29;20031;-85
2022/07/15 10:27:31;;;;;;;9.60;2.05;;;845.50;1536.00;;;;;;4940056;29;20467;-86
2022/07/15 10:30:02;;;;;;;6.38;2.08;;;870.50;1484.80;;;;;;4955411;28;20105;-86
2022/07/15 10:32:28;;;;;;;5.40;1.57;;;870.40;1459.20;;;;;;4955123;29;20052;-85
2022/07/15 10:34:54;;;;;;;4.55;2.40;;;870.50;1433.60;;;;;;4954957;29;20265;-86
2022/07/15 10:37:20;;;;;;;6.10;2.00;;;870.70;1484.80;;;;;;4954353;29;20032;-85
2022/07/15 10:40:06;;;;;;;6.93;2.28;;;870.80;1484.80;;;;;;4936514;29;20038;-88
2022/07/15 10:43:01;;;;;;;3.28;1.73;;;870.80;1484.80;;;;;;4951270;29;20027;-85
2022/07/15 10:45:29;;;;;;;5.00;2.08;;;871.00;1459.20;;;;;;4937587;28;20030;-85
2022/07/15 10:48:40;;;;;;;3.28;1.40;;;870.70;1459.20;;;;;;4957131;28;20556;-89
2022/07/15 10:51:06;;;;;;;3.92;1.70;;;870.70;1433.60;;;;;;4934907;28;20467;-87
2022/07/15 10:53:32;;;;;;;8.32;4.38;;;870.50;1459.20;;;;;;4946834;28;20031;-85
2022/07/15 10:56:36;;;;;;;6.55;2.55;;;870.80;1459.20;;;;;;4950701;29;20507;-86
2022/07/15 10:59:11;;;;;;;5.60;3.05;;;870.60;1459.20;;;;;;4950240;29;20054;-84
2022/07/15 11:01:41;;;;;;;3.47;2.10;;;870.60;1433.60;;;;;;4983623;28;20501;-86
2022/07/15 11:04:24;;;;;;;6.25;1.80;;;870.60;1433.60;;;;;;4977732;28;20082;-85
2022/07/15 11:07:02;;;;;;;5.13;2.05;;;870.80;1433.60;;;;;;4977729;28;20023;-86
2022/07/15 11:09:58;;;;;;;4.57;1.90;;;870.80;1459.20;;;;;;4951175;28;20043;-86
2022/07/15 11:12:44;;;;;;;5.38;1.90;;;871.30;1408.00;;;;;;4938984;29;20476;-87
2022/07/15 11:15:18;;;;;;;7.78;2.20;;;871.30;1408.00;;;;;;4938643;29;20028;-86
2022/07/15 11:17:47;;;;;;;5.47;2.20;;;896.20;1408.00;;;;;;4950921;29;20035;-85
2022/07/15 11:20:15;;;;;;;4.32;2.42;;;896.60;1382.40;;;;;;4948477;29;20062;-84
2022/07/15 11:22:43;;;;;;;6.78;2.63;;;;;;;;;;4945430;29;20086;-85
2022/07/15 11:25:21;;;;;;;6.53;2.08;;;;;;;;;;4954075;28;20051;-79
2022/07/15 11:28:01;;;;;;;7.05;1.73;;;;;;;;;;4998277;28;20061;-80
2022/07/15 11:30:29;;;;;;;4.82;1.80;;;;;;;;;;4998516;28;20054;-81
2022/07/15 11:32:59;;;;;;;4.18;1.58;;;;;;;;;;4987435;28;20050;-84
2022/07/15 11:35:26;;;;;;;6.45;1.55;;;;;;;;;;4981302;28;20463;-84
2022/07/15 11:38:03;;;;;;;7.78;1.92;;;896.90;1356.80;;;;;;4979580;28;20027;-86
2022/07/15 11:46:04;;;;;;;6.22;2.45;;;922.10;1408.00;;;;;;4980894;28;20125;-86
2022/07/15 11:48:38;;;;;;;10.98;2.30;;;922.50;1382.40;;;;;;4979504;28;20027;-84
2022/07/15 11:51:05;;;;;;;7.75;1.65;;;922.50;1382.40;;;;;;4978311;28;20093;-84
2022/07/15 11:53:39;;;;;;;5.70;1.70;;;947.30;1331.20;;;;;;4965161;28;20031;-84
2022/07/15 11:56:07;;;;;;;5.20;1.73;;;922.30;1356.80;;;;;;4959195;29;20024;-83
2022/07/15 11:58:39;;;;;;;3.83;1.73;;;896.70;1331.20;;;;;;4958980;29;20031;-85
2022/07/15 12:01:08;;;;;;;6.20;2.53;;;947.20;1356.80;;;;;;4958637;29;20091;-83
2022/07/15 12:03:36;;;;;;;3.78;1.40;;;;;;;;;;4958666;28;20041;-82
2022/07/15 12:06:08;;;;;;;5.15;2.08;;;;;;;;;;4958769;29;20024;-85
2022/07/15 12:08:40;;;;;;;7.18;2.00;;;;;;;;;;4957884;29;20034;-84
2022/07/15 12:11:26;;;;;;;6.13;1.65;;;;;;;;;;4957528;29;20027;-85
2022/07/15 12:14:00;;;;;;;4.68;1.83;;;922.00;1356.80;;;;;;4958167;29;20024;-84
2022/07/15 12:16:32;;;;;;;6.43;1.58;;;921.70;1356.80;;;;;;4956189;29;20035;-85
2022/07/15 12:19:04;;;;;;;4.00;1.40;;;896.90;1331.20;;;;;;4957475;28;20114;-83
2022/07/15 12:21:31;;;;;;;5.57;1.85;;;896.60;1331.20;;;;;;4956589;28;20098;-83
2022/07/15 12:24:01;;;;;;;3.88;1.45;;;896.20;1331.20;;;;;;4956413;29;20054;-83
2022/07/15 12:26:27;;;;;;;4.15;2.42;;;921.70;1356.80;;;;;;4963634;28;20034;-85
2022/07/15 12:28:55;;;;;;;3.75;1.70;;;922.10;1382.40;;;;;;4961086;28;20427;-84
2022/07/15 12:31:32;;;;;;;5.93;3.38;;;947.20;1356.80;;;;;;4955555;29;20027;-85
2022/07/15 12:33:59;;;;;;;5.60;1.70;;;;;;;;;;4959908;28;20042;-84
2022/07/15 12:36:29;;;;;;;3.92;1.55;;;;;;;;;;4960318;28;20019;-84
2022/07/15 12:39:28;;;;;;;4.82;2.00;;;;;;;;;;4960685;28;20026;-84
2022/07/15 12:42:00;;;;;;;7.70;2.00;;;;;;;;;;4943164;28;20038;-86
2022/07/15 12:44:26;;;;;;;8.65;1.77;;;;;;;;;;4960356;28;20030;-84
2022/07/15 12:46:56;;;;;;;3.72;1.45;;;;;;;;;;4960245;28;20019;-87
2022/07/15 12:49:38;;;;;;;9.40;2.15;;;;;;;;;;4960388;28;20019;-88
2022/07/15 12:52:23;;;;;;;7.20;2.00;;;;;;;;;;4959353;28;20049;-83
2022/07/15 12:54:51;;;;;;;5.15;1.85;;;947.90;1331.20;;;;;;4959547;28;20034;-84
2022/07/15 12:57:27;;;;;;;5.32;2.28;;;947.70;1331.20;;;;;;4959094;28;20114;-82
2022/07/15 12:59:55;;;;;;;7.43;2.20;;;947.50;1305.60;;;;;;4959365;28;20497;-86
2022/07/15 13:02:21;;;;;;;5.95;2.17;;;947.30;1331.20;;;;;;4959354;28;20030;-81
2022/07/15 13:04:48;;;;;;;6.43;2.15;;;947.50;1331.20;;;;;;4958942;28;20550;-83
2022/07/15 13:07:15;;;;;;;5.68;2.10;;;947.30;1331.20;;;;;;4959360;28;20030;-84
2022/07/15 13:09:41;;;;;;;4.30;1.83;;;947.60;1305.60;;;;;;4959779;28;20027;-84
2022/07/15 13:12:09;;;;;;;4.55;1.50;;;947.40;1305.60;;;;;;4957825;28;20038;-84
2022/07/15 13:14:35;;;;;;;3.53;1.85;;;922.50;1305.60;;;;;;4958928;28;20031;-85
2022/07/15 13:17:03;;;;;;;6.28;2.38;;;947.30;1356.80;;;;;;4958979;28;20027;-85
2022/07/15 13:19:29;;;;;;;12.00;7.80;;;947.60;1305.60;;;;;;4959442;28;20037;-83
2022/07/15 13:21:54;;;;;;;14.35;5.90;;;947.90;1305.60;;;;;;4959481;28;20102;-85
2022/07/15 13:24:20;;;;;;;13.85;6.07;;;972.80;1305.60;;;;;;4959253;28;20027;-86
2022/07/15 13:26:46;;;;;;;10.27;6.18;;;973.00;1305.60;;;;;;4959067;28;20038;-86
2022/07/15 13:29:12;;;;;;;9.05;3.15;;;973.20;1305.60;;;;;;4959135;28;20378;-86
2022/07/15 13:31:38;;;;;;;6.68;3.42;;;973.20;1280.00;;;;;;4958925;28;20037;-84
2022/07/15 13:34:04;;;;;;;7.35;5.30;;;973.20;1280.00;;;;;;4959016;28;20054;-85
2022/07/15 13:36:30;;;;;;;6.22;3.38;;;973.20;1305.60;;;;;;4959006;28;20173;-84